sensor_id;sensor_type;location;lat;lon;timestamp;pressure;altitude;pressure_sealevel;temperature;humidity
24302;BME280;12421;49.732;20.078;2023-08-17T00:24:37;97175.44;;;20.55;79.84
24302;BME280;12421;49.732;20.078;2023-08-17T00:56:52;97180.14;;;20.31;80.69
24302;BME280;12421;49.732;20.078;2023-08-17T01:07:17;97185.49;;;20.31;81.04
24302;BME280;12421;49.732;20.078;2023-08-17T01:17:33;97181.15;;;20.36;81.34
24302;BME280;12421;49.732;20.078;2023-08-17T01:27:41;97188.34;;;20.23;81.25
24302;BME280;12421;49.732;20.078;2023-08-17T01:37:45;97191.38;;;20.35;81.85
24302;BME280;12421;49.732;20.078;2023-08-17T01:47:50;97204.27;;;20.41;81.49
24302;BME280;12421;49.732;20.078;2023-08-17T01:57:53;97215.83;;;20.26;81.55
24302;BME280;12421;49.732;20.078;2023-08-17T02:07:56;97206.58;;;20.26;82.28
24302;BME280;12421;49.732;20.078;2023-08-17T02:18:01;97196.16;;;20.19;82.60
24302;BME280;12421;49.732;20.078;2023-08-17T02:28:05;97190.90;;;20.26;82.84
24302;BME280;12421;49.732;20.078;2023-08-17T02:38:08;97184.11;;;20.30;82.76
24302;BME280;12421;49.732;20.078;2023-08-17T02:48:11;97186.96;;;20.06;82.85
24302;BME280;12421;49.732;20.078;2023-08-17T02:58:15;97193.08;;;19.84;83.47
24302;BME280;12421;49.732;20.078;2023-08-17T03:08:18;97212.08;;;19.73;84.36
24302;BME280;12421;49.732;20.078;2023-08-17T03:18:21;97224.98;;;19.84;84.84
24302;BME280;12421;49.732;20.078;2023-08-17T03:28:24;97230.01;;;19.96;84.74
24302;BME280;12421;49.732;20.078;2023-08-17T03:38:29;97236.35;;;20.01;84.09
24302;BME280;12421;49.732;20.078;2023-08-17T03:48:33;97242.14;;;19.82;84.34
24302;BME280;12421;49.732;20.078;2023-08-17T03:58:36;97242.19;;;19.82;84.90
24302;BME280;12421;49.732;20.078;2023-08-17T04:08:40;97241.83;;;19.78;85.15
24302;BME280;12421;49.732;20.078;2023-08-17T04:18:43;97238.10;;;19.85;85.50
24302;BME280;12421;49.732;20.078;2023-08-17T04:28:48;97244.64;;;19.91;85.58
24302;BME280;12421;49.732;20.078;2023-08-17T04:38:51;97246.98;;;19.86;85.67
24302;BME280;12421;49.732;20.078;2023-08-17T04:48:55;97253.50;;;20.08;85.69
24302;BME280;12421;49.732;20.078;2023-08-17T04:58:58;97264.75;;;20.25;84.76
24302;BME280;12421;49.732;20.078;2023-08-17T05:09:03;97269.28;;;20.39;84.88
24302;BME280;12421;49.732;20.078;2023-08-17T05:19:09;97264.19;;;20.65;84.70
24302;BME280;12421;49.732;20.078;2023-08-17T05:29:12;97257.60;;;20.88;84.04
24302;BME280;12421;49.732;20.078;2023-08-17T05:39:17;97253.32;;;21.36;83.64
24302;BME280;12421;49.732;20.078;2023-08-17T05:49:20;97259.65;;;22.00;82.58
24302;BME280;12421;49.732;20.078;2023-08-17T05:59:24;97262.45;;;22.56;80.22
24302;BME280;12421;49.732;20.078;2023-08-17T06:09:27;97269.22;;;23.19;78.59
24302;BME280;12421;49.732;20.078;2023-08-17T06:19:55;97266.46;;;23.86;76.52
24302;BME280;12421;49.732;20.078;2023-08-17T06:29:59;97265.56;;;24.70;74.01
24302;BME280;12421;49.732;20.078;2023-08-17T06:40:03;97258.13;;;25.63;71.54
24302;BME280;12421;49.732;20.078;2023-08-17T06:50:08;97255.23;;;26.51;68.49
24302;BME280;12421;49.732;20.078;2023-08-17T07:00:15;97249.13;;;27.14;67.00
24302;BME280;12421;49.732;20.078;2023-08-17T07:10:19;97248.27;;;28.27;65.15
24302;BME280;12421;49.732;20.078;2023-08-17T07:20:22;97244.59;;;29.70;61.78
24302;BME280;12421;49.732;20.078;2023-08-17T07:30:26;97242.23;;;30.31;59.98
24302;BME280;12421;49.732;20.078;2023-08-17T07:40:29;97243.58;;;30.30;59.02
24302;BME280;12421;49.732;20.078;2023-08-17T07:50:33;97250.63;;;30.81;55.81
24302;BME280;12421;49.732;20.078;2023-08-17T08:00:36;97245.97;;;31.53;52.63
24302;BME280;12421;49.732;20.078;2023-08-17T08:10:40;97243.77;;;31.60;49.93
24302;BME280;12421;49.732;20.078;2023-08-17T08:20:44;97233.20;;;30.89;50.12
24302;BME280;12421;49.732;20.078;2023-08-17T08:30:47;97218.62;;;30.34;50.16
24302;BME280;12421;49.732;20.078;2023-08-17T08:40:50;97205.10;;;30.19;51.22
24302;BME280;12421;49.732;20.078;2023-08-17T08:50:59;97194.58;;;30.44;51.96
24302;BME280;12421;49.732;20.078;2023-08-17T09:01:03;97194.70;;;30.45;50.39
24302;BME280;12421;49.732;20.078;2023-08-17T09:11:10;97202.69;;;29.94;48.59
24302;BME280;12421;49.732;20.078;2023-08-17T09:21:24;97206.25;;;29.96;47.77
24302;BME280;12421;49.732;20.078;2023-08-17T09:31:53;97208.04;;;29.73;47.87
24302;BME280;12421;49.732;20.078;2023-08-17T09:41:57;97216.43;;;29.24;50.20
24302;BME280;12421;49.732;20.078;2023-08-17T09:52:02;97227.38;;;28.80;54.16
24302;BME280;12421;49.732;20.078;2023-08-17T10:02:18;97207.44;;;28.37;56.76
24302;BME280;12421;49.732;20.078;2023-08-17T10:12:49;97196.86;;;28.34;58.09
24302;BME280;12421;49.732;20.078;2023-08-17T10:23:18;97205.97;;;28.33;58.62
24302;BME280;12421;49.732;20.078;2023-08-17T10:33:22;97220.02;;;28.63;59.25
24302;BME280;12421;49.732;20.078;2023-08-17T10:43:33;97223.63;;;29.81;55.01
24302;BME280;12421;49.732;20.078;2023-08-17T10:53:37;97234.73;;;30.72;54.28
24302;BME280;12421;49.732;20.078;2023-08-17T11:03:45;97247.71;;;30.85;53.04
24302;BME280;12421;49.732;20.078;2023-08-17T11:13:49;97255.94;;;30.28;49.96
24302;BME280;12421;49.732;20.078;2023-08-17T11:23:59;97269.42;;;30.08;51.51
24302;BME280;12421;49.732;20.078;2023-08-17T11:34:04;97278.14;;;29.85;51.30
24302;BME280;12421;49.732;20.078;2023-08-17T11:44:08;97332.20;;;28.51;49.75
24302;BME280;12421;49.732;20.078;2023-08-17T11:54:12;97367.66;;;26.84;53.68
24302;BME280;12421;49.732;20.078;2023-08-17T12:04:15;97369.64;;;25.52;60.09
24302;BME280;12421;49.732;20.078;2023-08-17T12:14:19;97374.39;;;24.48;63.95
24302;BME280;12421;49.732;20.078;2023-08-17T12:24:26;97349.48;;;23.95;66.92
24302;BME280;12421;49.732;20.078;2023-08-17T12:34:29;97322.24;;;23.70;68.66
24302;BME280;12421;49.732;20.078;2023-08-17T12:44:33;97291.90;;;23.65;70.23
24302;BME280;12421;49.732;20.078;2023-08-17T12:54:36;97280.39;;;23.69;70.69
24302;BME280;12421;49.732;20.078;2023-08-17T13:04:41;97259.82;;;24.19;71.89
24302;BME280;12421;49.732;20.078;2023-08-17T13:14:44;97249.16;;;24.73;69.79
24302;BME280;12421;49.732;20.078;2023-08-17T13:24:48;97241.79;;;25.16;68.97
24302;BME280;12421;49.732;20.078;2023-08-17T13:34:51;97239.05;;;25.39;68.74
24302;BME280;12421;49.732;20.078;2023-08-17T13:44:54;97243.30;;;25.73;67.43
24302;BME280;12421;49.732;20.078;2023-08-17T13:54:57;97256.09;;;25.99;66.88
24302;BME280;12421;49.732;20.078;2023-08-17T14:05:01;97269.10;;;26.01;66.14
24302;BME280;12421;49.732;20.078;2023-08-17T14:15:05;97271.31;;;25.40;65.85
24302;BME280;12421;49.732;20.078;2023-08-17T14:25:09;97257.10;;;24.99;67.80
24302;BME280;12421;49.732;20.078;2023-08-17T14:35:13;97242.48;;;24.71;68.01
24302;BME280;12421;49.732;20.078;2023-08-17T14:45:17;97253.82;;;24.18;69.12
24302;BME280;12421;49.732;20.078;2023-08-17T14:55:20;97285.42;;;23.55;68.58
24302;BME280;12421;49.732;20.078;2023-08-17T15:05:24;97298.42;;;23.02;70.23
24302;BME280;12421;49.732;20.078;2023-08-17T15:15:30;97293.50;;;22.47;72.12
24302;BME280;12421;49.732;20.078;2023-08-17T15:25:34;97261.67;;;22.20;73.75
24302;BME280;12421;49.732;20.078;2023-08-17T15:35:37;97249.73;;;21.95;74.66
24302;BME280;12421;49.732;20.078;2023-08-17T15:45:41;97258.98;;;21.60;75.21
24302;BME280;12421;49.732;20.078;2023-08-17T15:55:45;97242.60;;;21.44;76.55
24302;BME280;12421;49.732;20.078;2023-08-17T16:05:49;97228.05;;;21.20;76.88
24302;BME280;12421;49.732;20.078;2023-08-17T16:15:52;97211.30;;;21.12;77.60
24302;BME280;12421;49.732;20.078;2023-08-17T16:25:56;97188.61;;;21.05;78.04
24302;BME280;12421;49.732;20.078;2023-08-17T16:35:59;97180.48;;;20.69;78.28
24302;BME280;12421;49.732;20.078;2023-08-17T16:46:03;97190.36;;;20.68;79.79
24302;BME280;12421;49.732;20.078;2023-08-17T16:56:06;97206.09;;;20.71;80.48
24302;BME280;12421;49.732;20.078;2023-08-17T17:06:10;97192.41;;;20.70;80.10
24302;BME280;12421;49.732;20.078;2023-08-17T17:16:14;97160.71;;;20.72;80.45
24302;BME280;12421;49.732;20.078;2023-08-17T17:26:17;97146.33;;;20.59;80.13
24302;BME280;12421;49.732;20.078;2023-08-17T17:36:24;97173.66;;;20.39;80.73
24302;BME280;12421;49.732;20.078;2023-08-17T17:46:27;97175.96;;;20.40;82.20
24302;BME280;12421;49.732;20.078;2023-08-17T17:56:42;97177.79;;;20.39;82.01
24302;BME280;12421;49.732;20.078;2023-08-17T18:06:46;97175.87;;;20.34;81.39
24302;BME280;12421;49.732;20.078;2023-08-17T18:16:50;97171.33;;;20.12;82.04
24302;BME280;12421;49.732;20.078;2023-08-17T18:26:53;97179.90;;;20.20;82.84
24302;BME280;12421;49.732;20.078;2023-08-17T18:36:57;97195.83;;;20.07;83.03
24302;BME280;12421;49.732;20.078;2023-08-17T18:47:02;97198.13;;;19.91;83.78
24302;BME280;12421;49.732;20.078;2023-08-17T18:57:05;97194.02;;;19.99;84.42
24302;BME280;12421;49.732;20.078;2023-08-17T19:07:09;97216.02;;;20.09;84.03
24302;BME280;12421;49.732;20.078;2023-08-17T19:17:12;97213.64;;;20.03;83.39
24302;BME280;12421;49.732;20.078;2023-08-17T19:27:15;97207.26;;;19.65;84.21
24302;BME280;12421;49.732;20.078;2023-08-17T19:37:19;97200.98;;;19.46;85.12
24302;BME280;12421;49.732;20.078;2023-08-17T19:47:22;97208.38;;;19.51;85.52
24302;BME280;12421;49.732;20.078;2023-08-17T19:57:26;97191.42;;;19.64;85.46
24302;BME280;12421;49.732;20.078;2023-08-17T20:07:29;97184.98;;;19.66;85.10
24302;BME280;12421;49.732;20.078;2023-08-17T20:17:36;97181.90;;;19.66;85.32
24302;BME280;12421;49.732;20.078;2023-08-17T20:27:40;97176.07;;;19.74;84.91
24302;BME280;12421;49.732;20.078;2023-08-17T20:37:45;97182.72;;;19.72;84.68
24302;BME280;12421;49.732;20.078;2023-08-17T20:47:48;97176.47;;;19.44;84.72
24302;BME280;12421;49.732;20.078;2023-08-17T20:57:53;97177.02;;;19.35;85.37
24302;BME280;12421;49.732;20.078;2023-08-17T21:07:56;97196.95;;;19.35;85.35
24302;BME280;12421;49.732;20.078;2023-08-17T21:18:01;97208.61;;;19.46;85.40
24302;BME280;12421;49.732;20.078;2023-08-17T21:28:05;97206.88;;;19.45;85.06
24302;BME280;12421;49.732;20.078;2023-08-17T21:38:09;97204.20;;;19.13;86.31
24302;BME280;12421;49.732;20.078;2023-08-17T21:48:13;97188.61;;;19.12;87.18
24302;BME280;12421;49.732;20.078;2023-08-17T21:58:17;97185.58;;;19.16;87.26
24302;BME280;12421;49.732;20.078;2023-08-17T22:08:21;97193.55;;;19.13;87.04
24302;BME280;12421;49.732;20.078;2023-08-17T22:18:24;97181.50;;;18.98;87.50
24302;BME280;12421;49.732;20.078;2023-08-17T22:28:30;97173.06;;;19.05;88.12
24302;BME280;12421;49.732;20.078;2023-08-17T22:38:33;97169.77;;;19.19;86.84
24302;BME280;12421;49.732;20.078;2023-08-17T22:48:43;97173.77;;;19.22;85.76
24302;BME280;12421;49.732;20.078;2023-08-17T22:58:46;97187.34;;;19.16;85.15
24302;BME280;12421;49.732;20.078;2023-08-17T23:08:50;97180.48;;;19.10;84.97
24302;BME280;12421;49.732;20.078;2023-08-17T23:18:53;97169.18;;;18.82;85.63
24302;BME280;12421;49.732;20.078;2023-08-17T23:29:00;97170.11;;;18.81;85.74
24302;BME280;12421;49.732;20.078;2023-08-17T23:39:23;97163.58;;;18.71;85.70
24302;BME280;12421;49.732;20.078;2023-08-17T23:49:27;97160.59;;;18.52;86.26
24302;BME280;12421;49.732;20.078;2023-08-17T23:59:43;97157.35;;;18.53;86.87
